Time;durP1;ratioP1;P1;durP2;ratioP2;P2;SDS_P1;SDS_P2;PMS_P1;PMS_P2;Temp;Humidity;BMP_temperature;BMP_pressure;BME280_temperature;BME280_humidity;BME280_pressure;Samples;Min_cycle;Max_cycle;Signal;HPM_P1;HPM_P2
2023/06/26 00:02:02;;;;;;;7.13;5.90;;;24.00;99.90;;;;;;4975724;28;20152;-79
2023/06/26 00:04:28;;;;;;;6.55;5.10;;;24.00;99.90;;;;;;4975120;28;20046;-81
2023/06/26 00:06:54;;;;;;;6.88;5.30;;;23.90;99.90;;;;;;4975043;28;20049;-78
2023/06/26 00:09:19;;;;;;;8.02;6.20;;;23.90;99.90;;;;;;4975594;28;20113;-82
2023/06/26 00:11:45;;;;;;;6.32;5.40;;;23.90;99.90;;;;;;4975100;28;20101;-81
2023/06/26 00:14:11;;;;;;;6.75;5.40;;;23.90;99.90;;;;;;4975596;28;20046;-80
2023/06/26 00:16:36;;;;;;;6.25;5.38;;;23.90;99.90;;;;;;4974989;28;20054;-81
2023/06/26 00:19:02;;;;;;;6.97;5.60;;;23.90;99.90;;;;;;4975047;28;20400;-80
2023/06/26 00:21:28;;;;;;;6.72;5.00;;;23.80;99.90;;;;;;4973458;28;20043;-79
2023/06/26 00:23:53;;;;;;;6.28;5.68;;;23.80;99.90;;;;;;4975485;28;20054;-81
2023/06/26 00:26:19;;;;;;;6.35;5.75;;;23.80;99.90;;;;;;4973382;28;20055;-78
2023/06/26 00:28:46;;;;;;;6.60;5.63;;;23.80;99.90;;;;;;4974831;28;20051;-80
2023/06/26 00:31:12;;;;;;;7.35;5.90;;;23.70;99.90;;;;;;4975202;28;20050;-81
2023/06/26 00:33:37;;;;;;;6.47;5.38;;;23.60;99.90;;;;;;4974906;28;20058;-81
2023/06/26 00:36:03;;;;;;;7.03;5.40;;;23.60;99.90;;;;;;4957569;28;20567;-80
2023/06/26 00:38:29;;;;;;;6.22;5.47;;;23.60;99.90;;;;;;4973554;28;20498;-79
2023/06/26 00:40:55;;;;;;;5.80;5.20;;;23.60;99.90;;;;;;4975287;28;20105;-83
2023/06/26 00:43:21;;;;;;;5.88;5.22;;;23.50;99.90;;;;;;4974769;28;20462;-81
2023/06/26 00:45:47;;;;;;;5.65;5.05;;;23.50;99.90;;;;;;4974682;28;20150;-80
2023/06/26 00:48:13;;;;;;;6.53;5.53;;;23.50;99.90;;;;;;4974603;28;20074;-81
2023/06/26 00:50:41;;;;;;;6.05;5.35;;;23.50;99.90;;;;;;4957549;28;20082;-82
2023/06/26 00:53:07;;;;;;;6.38;5.60;;;23.40;99.90;;;;;;4974692;28;20133;-85
2023/06/26 00:55:33;;;;;;;6.53;5.38;;;23.40;99.90;;;;;;4975151;28;20051;-80
2023/06/26 00:57:59;;;;;;;6.40;5.75;;;23.40;99.90;;;;;;4974874;28;20043;-81
2023/06/26 01:00:25;;;;;;;6.43;5.32;;;23.40;99.90;;;;;;4973587;28;20444;-80
2023/06/26 01:02:51;;;;;;;6.65;5.45;;;23.40;99.90;;;;;;4973333;28;20061;-81
2023/06/26 01:05:20;;;;;;;6.57;5.72;;;23.30;99.90;;;;;;4973372;28;20047;-82
2023/06/26 01:07:47;;;;;;;6.70;6.05;;;23.30;99.90;;;;;;4975043;28;20050;-84
2023/06/26 01:10:13;;;;;;;7.20;5.28;;;23.30;99.90;;;;;;4977023;28;20047;-82
2023/06/26 01:12:39;;;;;;;8.60;5.65;;;23.30;99.90;;;;;;4978290;28;20061;-82
2023/06/26 01:15:05;;;;;;;6.10;5.50;;;23.30;99.90;;;;;;4978168;28;20043;-80
2023/06/26 01:17:31;;;;;;;7.75;5.13;;;23.20;99.90;;;;;;4978021;28;20405;-81
2023/06/26 01:20:06;;;;;;;7.97;5.82;;;23.20;99.90;;;;;;4977077;28;20051;-84
2023/06/26 01:22:54;;;;;;;6.33;5.43;;;23.20;99.90;;;;;;4977141;28;20046;-83
2023/06/26 01:25:41;;;;;;;6.47;5.45;;;23.20;99.90;;;;;;4977140;28;20069;-82
2023/06/26 01:28:08;;;;;;;6.72;5.63;;;23.20;99.90;;;;;;4978143;28;20047;-76
2023/06/26 01:30:38;;;;;;;6.45;5.70;;;23.10;99.90;;;;;;4976668;28;20506;-76
2023/06/26 01:33:04;;;;;;;6.00;5.38;;;23.10;99.90;;;;;;4978101;28;20078;-78
2023/06/26 01:35:30;;;;;;;7.10;5.90;;;23.10;99.90;;;;;;4978412;28;20047;-78
2023/06/26 01:38:13;;;;;;;7.68;6.22;;;23.10;99.90;;;;;;4977876;28;20049;-78
2023/06/26 01:40:39;;;;;;;6.32;5.57;;;23.00;99.90;;;;;;4976833;28;20057;-79
2023/06/26 01:43:09;;;;;;;7.68;6.32;;;23.00;99.90;;;;;;4977737;28;20047;-79
2023/06/26 01:45:36;;;;;;;7.30;6.18;;;23.00;99.90;;;;;;4977855;28;20053;-80
2023/06/26 01:48:04;;;;;;;7.70;6.20;;;23.00;99.90;;;;;;4976768;28;20055;-80
2023/06/26 01:50:33;;;;;;;6.65;5.95;;;22.90;99.90;;;;;;4977811;28;20502;-80
2023/06/26 01:53:11;;;;;;;7.10;6.40;;;23.00;99.90;;;;;;4977550;28;20043;-79
2023/06/26 01:55:42;;;;;;;6.80;5.70;;;22.90;99.90;;;;;;4978377;28;20082;-78
2023/06/26 01:58:09;;;;;;;6.97;5.80;;;22.90;99.90;;;;;;4977733;28;20133;-80
2023/06/26 02:00:36;;;;;;;7.00;6.00;;;22.80;99.90;;;;;;4976516;28;20086;-80
2023/06/26 02:03:04;;;;;;;6.63;5.68;;;22.80;99.90;;;;;;4977411;28;20047;-79
2023/06/26 02:05:30;;;;;;;7.40;6.10;;;22.80;99.90;;;;;;4977082;28;20527;-80
2023/06/26 02:07:56;;;;;;;7.30;6.15;;;22.70;99.90;;;;;;4977732;28;20118;-78
2023/06/26 02:10:22;;;;;;;7.68;5.85;;;22.60;99.90;;;;;;4977358;28;20141;-79
2023/06/26 02:12:48;;;;;;;8.50;6.13;;;22.50;99.90;;;;;;4977151;28;20054;-78
2023/06/26 02:15:13;;;;;;;7.13;6.43;;;22.40;99.90;;;;;;4977190;28;20051;-80
2023/06/26 02:17:39;;;;;;;7.65;6.28;;;22.40;99.90;;;;;;4977128;28;20039;-80
2023/06/26 02:20:06;;;;;;;7.78;6.30;;;22.30;99.90;;;;;;4977112;28;20046;-79
2023/06/26 02:22:32;;;;;;;7.72;6.50;;;22.20;99.90;;;;;;4976402;28;20043;-79
2023/06/26 02:24:57;;;;;;;9.63;6.63;;;22.20;99.90;;;;;;4976105;28;20057;-78
2023/06/26 02:27:23;;;;;;;7.47;6.25;;;22.20;99.90;;;;;;4976208;28;20055;-78
2023/06/26 02:29:49;;;;;;;7.43;6.63;;;22.20;99.90;;;;;;4977495;28;20046;-79
2023/06/26 02:32:14;;;;;;;7.90;6.88;;;22.20;99.90;;;;;;4976899;28;20047;-79
2023/06/26 02:34:40;;;;;;;7.15;6.30;;;22.20;99.90;;;;;;4977444;28;20082;-80
2023/06/26 02:37:07;;;;;;;8.02;6.93;;;22.10;99.90;;;;;;4975536;28;20050;-78
2023/06/26 02:39:34;;;;;;;7.53;6.72;;;22.10;99.90;;;;;;4959722;28;20047;-78
2023/06/26 02:41:59;;;;;;;7.85;6.80;;;22.10;99.90;;;;;;4975718;28;20047;-79
2023/06/26 02:44:25;;;;;;;7.50;6.40;;;22.00;99.90;;;;;;4976650;28;20047;-80
2023/06/26 02:46:51;;;;;;;9.23;7.47;;;21.90;99.90;;;;;;4976853;28;20101;-80
2023/06/26 02:49:16;;;;;;;7.53;6.82;;;21.90;99.90;;;;;;4977114;28;20047;-79
2023/06/26 02:51:42;;;;;;;8.73;7.20;;;21.80;99.90;;;;;;4977322;28;20091;-80
2023/06/26 02:54:08;;;;;;;8.63;7.72;;;21.80;99.90;;;;;;4975493;28;20556;-80
2023/06/26 02:56:33;;;;;;;7.95;6.93;;;21.70;99.90;;;;;;4975606;28;20053;-80
2023/06/26 02:58:59;;;;;;;8.35;7.55;;;21.60;99.90;;;;;;4976083;28;20069;-80
2023/06/26 03:01:25;;;;;;;7.65;6.95;;;21.60;99.90;;;;;;4976062;28;20042;-78
2023/06/26 03:03:51;;;;;;;8.60;7.78;;;21.50;99.90;;;;;;4975878;28;20129;-80
2023/06/26 03:06:17;;;;;;;9.52;8.45;;;21.50;99.90;;;;;;4975983;28;20058;-79
2023/06/26 03:08:42;;;;;;;9.23;8.18;;;21.50;99.90;;;;;;4976030;28;20046;-78
2023/06/26 03:11:09;;;;;;;9.13;8.23;;;21.50;99.90;;;;;;4976529;28;20057;-80
2023/06/26 03:13:36;;;;;;;9.35;7.88;;;21.40;99.90;;;;;;4976844;28;20371;-80
2023/06/26 03:16:02;;;;;;;8.93;7.97;;;21.30;99.90;;;;;;4975349;28;20050;-81
2023/06/26 03:18:28;;;;;;;8.77;7.88;;;21.30;99.90;;;;;;4975792;28;20046;-80
2023/06/26 03:20:56;;;;;;;8.63;7.78;;;21.20;99.90;;;;;;4975014;28;20558;-81
2023/06/26 03:23:23;;;;;;;8.82;7.93;;;21.20;99.90;;;;;;4959205;28;20137;-80
2023/06/26 03:25:49;;;;;;;8.45;7.40;;;21.10;99.90;;;;;;4974658;28;20380;-79
2023/06/26 03:28:15;;;;;;;10.07;7.90;;;21.00;99.90;;;;;;4976328;28;20392;-80
2023/06/26 03:30:41;;;;;;;8.80;7.90;;;21.00;99.90;;;;;;4975798;28;20046;-81
2023/06/26 03:33:07;;;;;;;9.10;8.07;;;21.00;99.90;;;;;;4975344;28;20388;-79
2023/06/26 03:35:32;;;;;;;9.00;7.50;;;21.00;99.90;;;;;;4975656;28;20047;-79
2023/06/26 03:37:58;;;;;;;10.13;8.57;;;21.10;99.90;;;;;;4974470;28;20046;-79
2023/06/26 03:40:24;;;;;;;10.38;8.13;;;21.10;99.90;;;;;;4959300;28;20391;-79
2023/06/26 03:42:50;;;;;;;9.30;7.55;;;21.20;99.90;;;;;;4975112;28;20053;-79
2023/06/26 03:45:16;;;;;;;9.75;7.75;;;21.10;99.90;;;;;;4958151;28;20061;-79
2023/06/26 03:47:41;;;;;;;8.10;7.30;;;21.10;99.90;;;;;;4975224;28;20062;-78
2023/06/26 03:50:07;;;;;;;9.13;7.40;;;21.10;99.90;;;;;;4975277;28;20055;-79
2023/06/26 03:52:33;;;;;;;8.73;7.82;;;21.10;99.90;;;;;;4973913;28;20073;-79
2023/06/26 03:54:59;;;;;;;10.07;8.50;;;21.10;99.90;;;;;;4975042;28;20491;-79
2023/06/26 03:57:25;;;;;;;9.68;8.63;;;21.10;99.90;;;;;;4975042;28;20480;-78
2023/06/26 03:59:53;;;;;;;10.30;8.23;;;21.10;99.90;;;;;;4974068;28;20049;-78
2023/06/26 04:02:18;;;;;;;9.25;8.35;;;21.30;99.90;;;;;;4975296;28;20412;-79
2023/06/26 04:04:44;;;;;;;10.75;8.55;;;21.20;99.90;;;;;;4975172;28;20206;-78
2023/06/26 04:07:10;;;;;;;9.38;8.32;;;21.20;99.90;;;;;;4975070;28;20054;-79
2023/06/26 04:09:35;;;;;;;10.30;9.05;;;21.20;99.90;;;;;;4974231;28;20053;-78
2023/06/26 04:12:02;;;;;;;10.48;8.70;;;21.20;99.90;;;;;;4975152;28;20047;-79
2023/06/26 04:14:27;;;;;;;9.70;8.38;;;21.20;99.90;;;;;;4975110;28;20396;-78
2023/06/26 04:16:53;;;;;;;10.43;8.82;;;21.20;99.90;;;;;;4975003;28;20070;-78
2023/06/26 04:19:19;;;;;;;9.73;8.40;;;21.20;99.90;;;;;;4974782;28;20487;-79
2023/06/26 04:21:45;;;;;;;9.75;8.40;;;21.20;99.90;;;;;;4974172;28;20057;-79
2023/06/26 04:24:11;;;;;;;9.45;8.40;;;21.20;99.90;;;;;;4958237;28;20082;-78
2023/06/26 04:26:38;;;;;;;9.65;8.35;;;21.20;99.90;;;;;;4973489;28;20046;-80
2023/06/26 04:29:03;;;;;;;10.13;8.00;;;21.20;99.90;;;;;;4974836;28;20054;-80
2023/06/26 04:31:29;;;;;;;9.90;8.25;;;21.20;99.90;;;;;;4974937;28;20090;-78
2023/06/26 04:33:55;;;;;;;9.80;8.20;;;21.20;99.90;;;;;;4974876;28;20078;-78
2023/06/26 04:36:21;;;;;;;10.98;8.50;;;21.20;99.90;;;;;;4974793;28;20404;-78
2023/06/26 04:38:50;;;;;;;10.05;8.02;;;21.30;99.90;;;;;;4958557;28;20097;-78
2023/06/26 04:41:15;;;;;;;9.75;8.25;;;21.30;99.90;;;;;;4974761;28;20096;-79
2023/06/26 04:43:41;;;;;;;9.73;8.73;;;21.30;99.90;;;;;;4957858;28;20046;-80
2023/06/26 04:46:07;;;;;;;10.30;8.48;;;21.30;99.90;;;;;;4977658;28;20049;-79
2023/06/26 04:48:33;;;;;;;10.65;8.52;;;21.30;99.90;;;;;;4978962;28;20060;-81
2023/06/26 04:50:58;;;;;;;9.15;8.25;;;21.40;99.90;;;;;;4977513;28;20047;-78
2023/06/26 04:53:24;;;;;;;10.40;8.60;;;21.40;99.90;;;;;;4977670;28;20439;-80
2023/06/26 04:55:51;;;;;;;10.48;8.93;;;21.40;99.90;;;;;;4977369;28;20046;-80
2023/06/26 04:58:17;;;;;;;10.10;8.65;;;21.40;99.90;;;;;;4977164;28;20491;-78
2023/06/26 05:00:43;;;;;;;10.18;8.30;;;21.50;99.90;;;;;;4977808;28;20427;-79
2023/06/26 05:03:13;;;;;;;9.18;8.25;;;21.50;99.90;;;;;;4980034;28;20051;-80
2023/06/26 05:05:39;;;;;;;10.15;8.40;;;21.50;99.90;;;;;;4979652;28;20053;-79
2023/06/26 05:08:15;;;;;;;11.07;8.95;;;21.50;99.90;;;;;;4978764;28;20396;-79
2023/06/26 05:10:41;;;;;;;9.50;8.18;;;21.50;99.90;;;;;;4978445;28;20103;-80
2023/06/26 05:13:06;;;;;;;9.13;7.85;;;21.50;99.90;;;;;;4978266;28;20121;-79
2023/06/26 05:15:32;;;;;;;8.48;7.07;;;21.50;99.90;;;;;;4978234;28;20101;-80
2023/06/26 05:17:58;;;;;;;8.32;6.47;;;21.50;99.90;;;;;;4977286;28;20054;-80
2023/06/26 05:20:23;;;;;;;8.20;6.85;;;21.60;99.90;;;;;;4978145;28;20043;-80
2023/06/26 05:22:50;;;;;;;8.23;6.57;;;21.70;99.90;;;;;;4977164;28;20057;-81
2023/06/26 05:25:18;;;;;;;8.63;6.00;;;21.80;99.90;;;;;;4976721;28;20065;-78
2023/06/26 05:27:44;;;;;;;7.63;5.82;;;21.90;99.90;;;;;;4978588;28;20105;-78
2023/06/26 05:30:10;;;;;;;7.40;5.07;;;21.90;99.90;;;;;;4977050;28;20047;-78
2023/06/26 05:32:39;;;;;;;9.38;5.15;;;22.00;99.90;;;;;;4977908;28;20047;-77
2023/06/26 05:35:06;;;;;;;7.20;4.80;;;22.10;99.90;;;;;;4977959;28;20097;-79
2023/06/26 05:37:33;;;;;;;7.30;4.75;;;22.10;99.90;;;;;;4976783;28;20117;-77
2023/06/26 05:39:59;;;;;;;8.00;4.60;;;21.90;99.90;;;;;;4977735;28;20053;-77
2023/06/26 05:42:29;;;;;;;9.07;4.80;;;21.80;99.90;;;;;;4977827;28;20090;-77
2023/06/26 05:44:54;;;;;;;8.02;4.30;;;21.70;99.90;;;;;;4978239;28;20038;-80
2023/06/26 05:47:20;;;;;;;7.53;4.75;;;21.70;99.90;;;;;;4977913;28;20068;-82
2023/06/26 05:49:46;;;;;;;7.32;4.93;;;21.60;99.90;;;;;;4977638;28;20113;-79
2023/06/26 05:52:12;;;;;;;10.07;5.00;;;21.60;99.90;;;;;;4978075;28;20078;-78
2023/06/26 05:54:38;;;;;;;8.48;4.93;;;21.50;99.90;;;;;;4977608;28;20109;-78
2023/06/26 05:57:04;;;;;;;11.23;5.30;;;21.60;99.90;;;;;;4976008;28;20419;-79
2023/06/26 05:59:32;;;;;;;8.30;4.78;;;21.50;99.90;;;;;;4976809;28;20054;-78
2023/06/26 06:01:58;;;;;;;7.07;4.78;;;21.50;99.90;;;;;;4978231;28;20054;-80
2023/06/26 06:04:24;;;;;;;8.20;4.68;;;21.40;99.90;;;;;;4977434;28;20126;-78
2023/06/26 06:06:49;;;;;;;9.25;4.90;;;21.40;99.90;;;;;;4977181;28;20186;-79
2023/06/26 06:09:15;;;;;;;7.32;4.55;;;21.30;99.90;;;;;;4977770;28;20506;-77
2023/06/26 06:11:41;;;;;;;6.00;4.28;;;21.20;99.90;;;;;;4977762;28;20047;-67
2023/06/26 06:14:07;;;;;;;9.57;4.70;;;21.10;99.90;;;;;;4977183;28;20054;-68
2023/06/26 06:16:33;;;;;;;6.28;4.63;;;21.10;99.90;;;;;;4977119;28;20043;-67
2023/06/26 06:18:58;;;;;;;7.43;4.50;;;21.20;99.90;;;;;;4977063;28;20476;-67
2023/06/26 06:21:24;;;;;;;6.45;4.20;;;21.20;99.90;;;;;;4977889;28;20051;-68
2023/06/26 06:23:50;;;;;;;7.88;4.40;;;21.20;99.90;;;;;;4977075;28;20047;-68
2023/06/26 06:26:15;;;;;;;7.13;4.13;;;21.30;99.90;;;;;;4977351;28;20055;-68
2023/06/26 06:28:41;;;;;;;9.38;3.80;;;21.40;99.90;;;;;;4976606;28;20054;-67
2023/06/26 06:31:07;;;;;;;6.85;4.10;;;21.40;99.90;;;;;;4976848;28;20054;-67
2023/06/26 06:33:33;;;;;;;7.07;4.82;;;21.50;99.90;;;;;;4976908;28;20055;-68
2023/06/26 06:35:58;;;;;;;6.72;4.05;;;21.60;99.90;;;;;;4977250;28;20042;-70
2023/06/26 06:38:24;;;;;;;6.70;4.10;;;21.60;99.90;;;;;;4976866;28;20452;-68
2023/06/26 06:40:51;;;;;;;5.68;3.63;;;21.70;99.90;;;;;;4976643;28;20051;-68
2023/06/26 06:43:16;;;;;;;5.53;3.03;;;21.80;99.90;;;;;;4977516;28;20104;-67
2023/06/26 06:45:42;;;;;;;6.70;3.40;;;21.80;99.90;;;;;;4977231;28;20506;-67
2023/06/26 06:48:08;;;;;;;5.03;3.05;;;21.70;99.90;;;;;;4975292;28;20047;-68
2023/06/26 06:50:33;;;;;;;5.18;2.78;;;21.60;99.90;;;;;;4976621;28;20046;-68
2023/06/26 06:52:59;;;;;;;8.43;2.92;;;21.60;99.90;;;;;;4976700;28;20050;-69
2023/06/26 06:55:25;;;;;;;3.88;2.30;;;21.60;99.90;;;;;;4976799;28;20423;-69
2023/06/26 06:57:51;;;;;;;5.47;2.67;;;21.60;99.90;;;;;;4976162;28;20495;-68
2023/06/26 07:00:17;;;;;;;4.82;2.08;;;21.60;99.90;;;;;;4976412;28;20050;-69
2023/06/26 07:02:44;;;;;;;3.35;2.20;;;21.60;99.90;;;;;;4976870;28;20369;-68
2023/06/26 07:05:11;;;;;;;4.70;2.63;;;21.60;99.90;;;;;;4975382;28;20055;-67
2023/06/26 07:07:38;;;;;;;4.00;1.80;;;21.60;99.90;;;;;;4975929;28;20388;-67
2023/06/26 07:10:05;;;;;;;3.55;1.90;;;21.70;99.90;;;;;;4975772;28;20050;-68
2023/06/26 07:12:30;;;;;;;2.55;1.20;;;21.90;99.90;;;;;;4976773;28;20051;-66
2023/06/26 07:14:57;;;;;;;4.57;2.10;;;22.10;99.90;;;;;;4976086;28;20050;-67
2023/06/26 07:17:23;;;;;;;2.88;1.48;;;22.10;99.90;;;;;;4975994;28;20085;-67
2023/06/26 07:19:49;;;;;;;4.25;1.52;;;22.20;99.90;;;;;;4975730;28;20047;-69
2023/06/26 07:22:15;;;;;;;3.60;1.58;;;22.20;99.90;;;;;;4975772;28;20407;-68
2023/06/26 07:24:41;;;;;;;2.97;1.38;;;22.30;99.90;;;;;;4975833;28;20053;-68
2023/06/26 07:27:06;;;;;;;3.95;1.30;;;22.40;99.90;;;;;;4957846;28;20145;-69
2023/06/26 07:29:33;;;;;;;3.90;1.60;;;22.40;99.90;;;;;;4975575;28;20047;-68
2023/06/26 07:31:58;;;;;;;2.40;1.30;;;22.50;99.90;;;;;;4975627;28;20094;-69
2023/06/26 07:34:24;;;;;;;3.03;1.30;;;22.60;99.90;;;;;;4975705;28;20464;-67
2023/06/26 07:36:50;;;;;;;4.13;1.30;;;22.70;99.90;;;;;;4975833;28;20039;-68
2023/06/26 07:39:16;;;;;;;3.63;1.20;;;22.80;99.90;;;;;;4975470;28;20047;-67
2023/06/26 07:41:41;;;;;;;2.63;1.10;;;22.90;99.90;;;;;;4975533;28;20047;-70
2023/06/26 07:44:07;;;;;;;3.63;1.20;;;23.00;99.90;;;;;;4975824;28;20546;-69
2023/06/26 07:46:33;;;;;;;3.28;1.30;;;22.90;99.90;;;;;;4975271;28;20146;-68
2023/06/26 07:48:58;;;;;;;3.05;1.23;;;22.60;99.90;;;;;;4974144;28;20053;-67
2023/06/26 07:51:24;;;;;;;4.70;1.63;;;22.50;99.90;;;;;;4975389;28;20066;-67
2023/06/26 07:53:50;;;;;;;2.90;1.40;;;22.50;99.90;;;;;;4975007;28;20380;-68
2023/06/26 07:56:15;;;;;;;2.40;1.30;;;22.50;99.90;;;;;;4975293;28;20054;-68
2023/06/26 07:58:41;;;;;;;2.70;1.05;;;22.60;99.90;;;;;;4975348;28;20504;-68
2023/06/26 08:01:07;;;;;;;3.50;1.08;;;22.70;99.90;;;;;;4973991;28;20059;-68
2023/06/26 08:03:32;;;;;;;3.70;1.30;;;22.80;99.90;;;;;;4973727;28;20046;-67
2023/06/26 08:05:58;;;;;;;3.50;1.20;;;22.90;99.90;;;;;;4975692;28;20057;-67
2023/06/26 08:08:24;;;;;;;3.05;1.20;;;22.90;99.90;;;;;;4975044;28;20438;-67
2023/06/26 08:10:49;;;;;;;3.25;1.17;;;23.00;99.90;;;;;;4975639;28;20050;-67
2023/06/26 08:13:15;;;;;;;2.75;1.08;;;23.20;99.90;;;;;;4975481;28;20050;-66
2023/06/26 08:15:41;;;;;;;3.20;1.30;;;23.30;99.90;;;;;;4975004;28;20049;-66
2023/06/26 08:18:06;;;;;;;2.60;1.17;;;23.30;99.90;;;;;;4975279;28;20042;-68
2023/06/26 08:20:32;;;;;;;2.80;1.23;;;23.30;99.90;;;;;;4974276;28;20051;-67
2023/06/26 08:22:58;;;;;;;3.20;1.20;;;23.20;99.90;;;;;;4974906;28;20538;-66
2023/06/26 08:25:23;;;;;;;2.17;1.00;;;23.20;99.90;;;;;;4974661;28;20086;-68
2023/06/26 08:27:52;;;;;;;2.85;1.33;;;23.30;99.90;;;;;;4975433;28;20054;-68
2023/06/26 08:30:18;;;;;;;3.67;1.30;;;23.40;99.90;;;;;;4974794;28;20058;-66
2023/06/26 08:32:43;;;;;;;2.78;1.00;;;23.40;99.90;;;;;;4974605;28;20046;-66
2023/06/26 08:35:10;;;;;;;2.65;1.20;;;23.50;99.90;;;;;;4974081;28;20046;-67
2023/06/26 08:37:36;;;;;;;2.22;1.00;;;23.60;99.90;;;;;;4975040;28;20046;-65
2023/06/26 08:40:02;;;;;;;2.78;1.23;;;23.60;99.90;;;;;;4974703;28;20078;-66
2023/06/26 08:42:28;;;;;;;3.65;1.10;;;23.60;99.90;;;;;;4974637;28;20403;-69
2023/06/26 08:44:53;;;;;;;3.35;1.00;;;23.60;99.90;;;;;;4975239;28;20042;-67
2023/06/26 08:47:19;;;;;;;2.83;1.05;;;23.50;99.90;;;;;;4974964;28;20129;-66
2023/06/26 08:49:56;;;;;;;3.85;1.10;;;23.60;99.90;;;;;;4974620;28;20050;-66
2023/06/26 08:52:30;;;;;;;2.53;1.20;;;23.60;99.90;;;;;;4975013;28;20177;-67
2023/06/26 08:55:01;;;;;;;3.28;1.00;;;23.70;99.90;;;;;;4975070;28;20435;-68
2023/06/26 08:57:28;;;;;;;5.47;1.30;;;23.60;99.90;;;;;;4974859;28;20089;-68
2023/06/26 08:59:54;;;;;;;3.70;1.10;;;23.60;99.90;;;;;;4974167;28;20140;-67
2023/06/26 09:02:23;;;;;;;3.25;1.10;;;23.80;99.90;;;;;;4974666;28;20432;-65
2023/06/26 09:04:49;;;;;;;2.63;0.90;;;23.80;99.90;;;;;;4973606;28;20058;-66
2023/06/26 09:07:16;;;;;;;2.22;0.90;;;23.70;99.90;;;;;;4974361;28;20130;-66
2023/06/26 09:09:41;;;;;;;2.28;1.00;;;23.60;99.90;;;;;;4974449;28;20066;-65
2023/06/26 09:12:09;;;;;;;2.85;1.17;;;23.70;99.90;;;;;;4974036;28;20046;-65
2023/06/26 09:14:36;;;;;;;2.03;1.10;;;23.70;99.90;;;;;;4974412;28;20053;-65
2023/06/26 09:17:02;;;;;;;2.65;1.15;;;23.60;99.90;;;;;;4974334;28;20050;-66
2023/06/26 09:19:28;;;;;;;2.97;1.00;;;23.60;99.90;;;;;;4973460;28;20089;-66
2023/06/26 09:21:54;;;;;;;2.80;1.17;;;23.60;99.90;;;;;;4973421;28;20042;-65
2023/06/26 09:24:21;;;;;;;3.03;1.20;;;23.60;99.90;;;;;;4974250;28;20049;-66
2023/06/26 09:26:48;;;;;;;3.08;1.10;;;23.70;99.90;;;;;;4973000;28;20059;-65
2023/06/26 09:29:14;;;;;;;3.67;1.42;;;23.90;99.90;;;;;;4974203;28;20105;-66
2023/06/26 09:31:40;;;;;;;4.28;1.10;;;24.20;99.90;;;;;;4977454;28;20047;-67
2023/06/26 09:34:06;;;;;;;3.17;1.13;;;24.50;99.90;;;;;;4976920;28;20490;-67
2023/06/26 09:36:33;;;;;;;2.15;1.10;;;24.20;99.90;;;;;;4977701;28;20384;-66
2023/06/26 09:39:04;;;;;;;4.10;1.35;;;23.90;99.90;;;;;;4976855;28;20135;-68
2023/06/26 09:41:30;;;;;;;2.95;1.38;;;23.90;99.90;;;;;;4977785;28;20055;-67
2023/06/26 09:44:02;;;;;;;3.95;1.20;;;23.90;99.90;;;;;;4977761;28;20101;-67
2023/06/26 09:46:29;;;;;;;2.28;1.30;;;24.00;99.90;;;;;;4978500;28;20054;-69
2023/06/26 09:49:10;;;;;;;2.55;1.42;;;24.10;99.90;;;;;;4977685;28;20046;-66
2023/06/26 09:51:38;;;;;;;4.22;1.85;;;24.00;99.90;;;;;;4977624;28;20050;-66
2023/06/26 09:54:05;;;;;;;2.90;1.50;;;23.70;99.90;;;;;;4977563;28;20105;-66
2023/06/26 09:56:32;;;;;;;2.83;1.35;;;23.50;99.90;;;;;;4977419;28;20050;-65
2023/06/26 09:59:03;;;;;;;4.00;1.38;;;23.30;99.90;;;;;;4977665;28;20514;-66
2023/06/26 10:01:31;;;;;;;1.98;1.15;;;23.60;99.90;;;;;;4976161;28;20054;-66
2023/06/26 10:03:57;;;;;;;3.05;1.40;;;24.00;99.90;;;;;;4977386;28;20137;-65
2023/06/26 10:06:35;;;;;;;2.25;1.17;;;24.20;99.90;;;;;;4977282;28;20097;-65
2023/06/26 10:09:01;;;;;;;2.30;1.33;;;23.80;99.90;;;;;;4977268;28;20039;-65
2023/06/26 10:11:40;;;;;;;2.78;1.38;;;23.50;99.90;;;;;;4978004;28;20428;-66
2023/06/26 10:14:07;;;;;;;4.63;1.40;;;23.60;99.90;;;;;;4977339;28;20078;-66
2023/06/26 10:16:37;;;;;;;3.40;1.38;;;23.80;99.90;;;;;;4977093;28;20047;-70
2023/06/26 10:19:07;;;;;;;2.90;1.52;;;24.00;99.90;;;;;;4977527;28;20050;-67
2023/06/26 10:21:36;;;;;;;2.90;1.30;;;24.00;99.90;;;;;;4977265;28;20073;-66
2023/06/26 10:24:03;;;;;;;2.22;1.20;;;24.20;99.90;;;;;;4977467;28;20049;-67
2023/06/26 10:26:30;;;;;;;2.58;1.23;;;24.30;99.90;;;;;;4976963;28;20087;-66
2023/06/26 10:28:57;;;;;;;2.97;1.38;;;24.50;99.90;;;;;;4976847;28;20090;-66
2023/06/26 10:31:26;;;;;;;2.00;1.00;;;24.70;99.90;;;;;;4975794;28;20062;-66
2023/06/26 10:33:52;;;;;;;2.55;1.00;;;24.70;99.90;;;;;;4976763;28;20345;-66
2023/06/26 10:36:26;;;;;;;4.10;1.52;;;24.50;99.90;;;;;;4975759;28;20055;-66
2023/06/26 10:38:57;;;;;;;3.33;1.30;;;24.60;99.90;;;;;;4976839;28;20126;-66
2023/06/26 10:41:23;;;;;;;2.00;1.20;;;25.00;99.90;;;;;;4976306;28;20507;-66
2023/06/26 10:43:59;;;;;;;3.88;1.20;;;25.10;99.90;;;;;;4977006;28;20043;-66
2023/06/26 10:46:25;;;;;;;;;;;25.10;99.90;;;;;;4976194;28;20042;-67
2023/06/26 10:49:00;;;;;;;2.13;1.20;;;25.00;99.90;;;;;;4976076;28;19922;-66
2023/06/26 10:51:27;;;;;;;2.78;1.20;;;25.00;99.90;;;;;;4976809;28;20050;-66
2023/06/26 10:53:57;;;;;;;2.67;1.10;;;24.90;99.90;;;;;;4975817;28;20046;-67
2023/06/26 10:56:43;;;;;;;2.08;1.10;;;25.00;99.90;;;;;;4976820;28;20054;-67
2023/06/26 10:59:32;;;;;;;1.70;1.00;;;25.10;99.90;;;;;;4976059;28;20059;-67
2023/06/26 11:02:03;;;;;;;2.58;1.10;;;25.20;99.90;;;;;;4976858;28;20057;-67
2023/06/26 11:04:43;;;;;;;2.50;1.23;;;25.30;99.90;;;;;;4976138;28;20134;-66
2023/06/26 11:07:17;;;;;;;2.70;1.30;;;25.00;99.90;;;;;;4975143;28;20077;-66
2023/06/26 11:10:00;;;;;;;3.42;1.83;;;24.50;99.90;;;;;;4976742;28;20054;-66
2023/06/26 11:12:42;;;;;;;3.88;1.45;;;24.10;99.90;;;;;;4975970;28;20093;-67
2023/06/26 11:15:19;;;;;;;2.80;1.20;;;24.20;99.90;;;;;;4975937;28;20051;-68
2023/06/26 11:17:46;;;;;;;3.00;1.42;;;24.20;99.90;;;;;;4975983;28;20129;-67
2023/06/26 11:20:13;;;;;;;2.92;1.48;;;24.30;99.90;;;;;;4976485;28;20050;-68
2023/06/26 11:22:41;;;;;;;3.63;1.33;;;24.50;99.90;;;;;;4975800;28;20093;-66
2023/06/26 11:25:08;;;;;;;3.28;1.60;;;24.70;99.90;;;;;;4974956;28;20059;-67
2023/06/26 11:27:44;;;;;;;3.28;1.17;;;24.40;99.90;;;;;;4975585;28;20047;-66
2023/06/26 11:30:23;;;;;;;3.00;1.20;;;23.90;99.90;;;;;;4975738;28;20058;-65
2023/06/26 11:32:50;;;;;;;3.33;1.15;;;23.50;99.90;;;;;;4976036;28;20049;-66
2023/06/26 11:35:30;;;;;;;2.67;1.05;;;23.50;99.90;;;;;;4975552;28;20050;-66
2023/06/26 11:38:00;;;;;;;2.75;1.10;;;23.90;99.90;;;;;;4974480;28;20051;-66
2023/06/26 11:40:27;;;;;;;2.80;0.85;;;24.20;99.90;;;;;;4974398;28;20571;-66
2023/06/26 11:42:55;;;;;;;2.78;0.90;;;24.50;99.90;;;;;;4975317;28;20058;-66
2023/06/26 11:45:21;;;;;;;4.65;1.20;;;24.60;99.90;;;;;;4975204;28;20081;-67
2023/06/26 11:47:47;;;;;;;3.55;1.20;;;24.80;99.90;;;;;;4974249;28;20234;-66
2023/06/26 11:50:18;;;;;;;3.08;1.30;;;24.90;99.90;;;;;;4975783;28;20498;-69
2023/06/26 11:52:45;;;;;;;3.22;1.20;;;25.10;99.90;;;;;;4975495;28;20079;-67
2023/06/26 11:55:11;;;;;;;2.47;1.15;;;25.10;99.90;;;;;;4974351;28;20061;-66
2023/06/26 11:57:37;;;;;;;3.08;1.00;;;25.20;99.90;;;;;;4975109;28;20047;-67
2023/06/26 12:00:14;;;;;;;1.77;0.85;;;25.20;99.90;;;;;;4975029;28;20085;-66
2023/06/26 12:02:39;;;;;;;2.25;1.00;;;25.50;99.90;;;;;;4975817;28;20051;-66
2023/06/26 12:05:07;;;;;;;3.65;1.10;;;25.30;99.90;;;;;;4974908;28;20395;-66
2023/06/26 12:07:33;;;;;;;2.47;1.10;;;25.30;99.90;;;;;;4958065;28;20054;-66
2023/06/26 12:10:00;;;;;;;2.22;0.85;;;25.20;99.90;;;;;;4974986;28;20054;-66
2023/06/26 12:12:25;;;;;;;3.05;1.20;;;25.20;99.90;;;;;;4974718;28;20105;-67
2023/06/26 12:14:52;;;;;;;3.42;1.08;;;25.30;99.90;;;;;;4974796;28;20506;-67
2023/06/26 12:17:21;;;;;;;2.70;1.33;;;25.30;99.90;;;;;;4974743;28;20096;-66
2023/06/26 12:19:50;;;;;;;4.55;1.23;;;25.20;99.90;;;;;;4975036;28;20407;-65
2023/06/26 12:22:17;;;;;;;3.75;1.00;;;25.00;99.90;;;;;;4974374;28;20457;-66
2023/06/26 12:24:44;;;;;;;3.72;1.13;;;24.70;99.90;;;;;;4974641;28;20058;-65
2023/06/26 12:27:14;;;;;;;3.70;1.00;;;24.60;99.90;;;;;;4974214;28;20121;-65
2023/06/26 12:29:46;;;;;;;2.13;0.95;;;24.90;99.90;;;;;;4974593;28;20050;-65
2023/06/26 12:32:14;;;;;;;3.33;0.85;;;25.10;99.90;;;;;;4974679;28;20057;-65
2023/06/26 12:34:40;;;;;;;2.20;1.00;;;24.90;99.90;;;;;;4974410;28;20046;-65
2023/06/26 12:37:10;;;;;;;3.85;1.02;;;24.80;99.90;;;;;;4974167;28;20562;-66
2023/06/26 12:39:52;;;;;;;3.90;1.13;;;24.90;99.90;;;;;;4973502;28;20086;-66
2023/06/26 12:42:23;;;;;;;2.60;1.00;;;25.00;99.90;;;;;;4974939;28;20086;-65
2023/06/26 12:44:49;;;;;;;2.15;0.73;;;24.90;99.90;;;;;;4973462;28;20105;-65
2023/06/26 12:47:25;;;;;;;3.88;1.13;;;25.00;99.90;;;;;;4974412;28;20051;-66